Time;durP1;ratioP1;P1;durP2;ratioP2;P2;SDS_P1;SDS_P2;PMS_P1;PMS_P2;Temp;Humidity;BMP_temperature;BMP_pressure;BME280_temperature;BME280_humidity;BME280_pressure;Samples;Min_cycle;Max_cycle;Signal;HPM_P1;HPM_P2
2022/01/20 00:01:50;;;;;;;3.42;2.83;;;4.80;69.30;;;;;;4996653;28;20038;-68
2022/01/20 00:04:28;;;;;;;3.87;2.47;;;4.80;69.30;;;;;;4991116;28;20500;-68
2022/01/20 00:23:13;;;;;;;4.60;3.17;;;4.70;69.40;;;;;;4993738;28;20045;-67
2022/01/20 00:28:38;;;;;;;2.88;2.30;;;4.60;69.60;;;;;;4990961;28;20034;-67
2022/01/20 00:33:54;;;;;;;3.28;2.55;;;4.60;69.70;;;;;;4991776;28;20032;-68
2022/01/20 00:39:00;;;;;;;3.85;2.67;;;4.60;69.80;;;;;;4993368;28;20038;-68
2022/01/20 00:41:26;;;;;;;3.80;2.83;;;4.60;69.90;;;;;;4992449;28;20036;-68
2022/01/20 00:43:51;;;;;;;4.25;2.65;;;4.60;70.00;;;;;;4989625;28;20049;-66
2022/01/20 00:46:17;;;;;;;4.15;2.60;;;4.60;70.00;;;;;;4989261;28;20508;-68
2022/01/20 00:48:43;;;;;;;3.38;2.90;;;4.60;70.00;;;;;;4990530;28;20372;-67
2022/01/20 00:51:09;;;;;;;4.25;2.83;;;4.60;70.00;;;;;;5000869;28;20030;-68
2022/01/20 00:53:34;;;;;;;5.18;3.13;;;4.50;70.00;;;;;;4990163;28;20034;-68
2022/01/20 00:56:00;;;;;;;4.85;2.97;;;4.50;70.00;;;;;;4993216;28;20121;-68
2022/01/20 00:58:26;;;;;;;3.85;2.80;;;4.50;70.00;;;;;;4991609;28;20042;-68
2022/01/20 01:00:52;;;;;;;4.43;2.90;;;4.50;70.10;;;;;;4993865;28;20501;-67
2022/01/20 01:03:18;;;;;;;4.82;3.08;;;4.50;70.30;;;;;;4991960;28;20069;-68
2022/01/20 01:06:37;;;;;;;4.78;3.00;;;4.50;70.40;;;;;;4991531;28;20042;-68
2022/01/20 01:08:29;;;;;;;3.55;2.78;;;4.50;70.50;;;;;;4988970;28;20041;-68
2022/01/20 01:10:55;;;;;;;3.38;2.70;;;4.50;70.50;;;;;;4993630;28;20045;-68
2022/01/20 01:13:23;;;;;;;4.20;2.88;;;4.50;70.60;;;;;;4989670;28;20057;-68
2022/01/20 01:15:50;;;;;;;4.57;3.13;;;4.50;70.80;;;;;;4988809;28;20044;-66
2022/01/20 01:23:41;;;;;;;4.00;3.28;;;4.40;71.00;;;;;;4996604;28;21064;-66
2022/01/20 01:26:10;;;;;;;3.60;3.20;;;4.40;71.30;;;;;;4995556;28;20497;-68
2022/01/20 01:28:36;;;;;;;4.85;3.05;;;4.40;71.30;;;;;;4997253;28;20034;-65
2022/01/20 01:31:27;;;;;;;4.05;2.97;;;4.40;71.30;;;;;;4994559;28;20036;-67
2022/01/20 01:33:58;;;;;;;4.22;3.40;;;4.40;71.50;;;;;;4993100;28;20046;-68
2022/01/20 01:36:26;;;;;;;3.83;3.10;;;4.30;71.50;;;;;;4990196;28;20045;-67
2022/01/20 01:38:52;;;;;;;4.38;3.17;;;4.40;71.70;;;;;;4996930;28;20038;-68
2022/01/20 01:41:29;;;;;;;3.88;2.88;;;4.40;71.60;;;;;;4994857;28;20045;-67
2022/01/20 01:43:55;;;;;;;3.85;2.92;;;4.40;71.70;;;;;;4990948;28;20045;-66
2022/01/20 01:46:21;;;;;;;5.90;3.15;;;4.40;71.70;;;;;;4992561;28;20084;-68
2022/01/20 01:48:47;;;;;;;4.18;3.30;;;4.40;72.10;;;;;;4991649;28;20038;-68
2022/01/20 01:51:12;;;;;;;4.88;3.33;;;4.40;71.60;;;;;;4993574;28;20509;-68
2022/01/20 01:53:39;;;;;;;4.90;3.20;;;4.40;71.60;;;;;;4992859;28;20034;-68
2022/01/20 01:56:06;;;;;;;4.03;3.35;;;4.30;71.70;;;;;;4993369;28;20034;-68
2022/01/20 01:58:32;;;;;;;3.42;3.10;;;4.30;71.90;;;;;;4990004;28;20165;-65
2022/01/20 02:00:58;;;;;;;5.07;3.30;;;4.30;71.90;;;;;;4990405;28;20029;-68
2022/01/20 02:03:24;;;;;;;5.35;3.22;;;4.30;72.10;;;;;;4994303;28;20030;-67
2022/01/20 02:06:08;;;;;;;3.78;3.00;;;4.30;72.20;;;;;;4994205;28;20034;-68
2022/01/20 02:19:14;;;;;;;4.57;3.50;;;4.30;72.50;;;;;;4996027;28;20080;-68
2022/01/20 02:21:51;;;;;;;3.92;3.33;;;4.20;72.50;;;;;;4987846;28;20591;-68
2022/01/20 02:24:18;;;;;;;4.82;3.40;;;4.20;72.70;;;;;;4993872;28;20108;-68
2022/01/20 02:26:44;;;;;;;5.18;3.65;;;4.20;72.70;;;;;;4991549;28;20034;-68
2022/01/20 02:29:10;;;;;;;4.15;3.33;;;4.20;72.90;;;;;;4997846;28;20512;-68
2022/01/20 02:31:36;;;;;;;4.28;3.45;;;4.20;72.90;;;;;;4991819;28;20519;-67
2022/01/20 02:34:02;;;;;;;4.82;3.28;;;4.20;73.00;;;;;;4993478;28;20034;-68
2022/01/20 02:36:28;;;;;;;4.22;3.15;;;4.20;73.00;;;;;;4996227;28;20040;-67
2022/01/20 02:39:04;;;;;;;4.00;3.22;;;4.20;73.10;;;;;;4991848;28;20552;-68
2022/01/20 02:46:59;;;;;;;5.25;3.38;;;4.20;73.30;;;;;;4991549;28;20578;-68
2022/01/20 02:49:24;;;;;;;4.25;3.58;;;4.20;73.40;;;;;;4993536;28;20047;-68
2022/01/20 02:51:52;;;;;;;4.63;3.40;;;4.20;73.60;;;;;;4992101;28;20038;-68
2022/01/20 02:54:19;;;;;;;4.50;3.30;;;4.20;73.60;;;;;;4992107;28;20034;-68
2022/01/20 02:56:45;;;;;;;4.00;3.30;;;4.20;73.60;;;;;;4991587;28;20041;-68
2022/01/20 02:59:11;;;;;;;6.25;3.30;;;4.20;73.70;;;;;;4990536;28;20034;-67
2022/01/20 03:01:37;;;;;;;4.88;3.55;;;4.10;73.70;;;;;;4995653;28;20126;-68
2022/01/20 03:04:03;;;;;;;5.60;3.70;;;4.20;73.90;;;;;;4991935;28;20128;-66
2022/01/20 03:06:29;;;;;;;4.85;3.60;;;4.10;74.10;;;;;;4992986;28;20412;-68
2022/01/20 03:08:54;;;;;;;4.80;3.55;;;4.10;74.10;;;;;;4997606;28;20046;-68
2022/01/20 03:11:20;;;;;;;4.47;3.78;;;4.10;74.10;;;;;;4990368;28;20060;-68
2022/01/20 03:13:46;;;;;;;6.72;4.20;;;4.10;74.30;;;;;;4996166;28;20038;-67
2022/01/20 03:16:11;;;;;;;6.00;3.83;;;4.10;74.50;;;;;;4995904;28;20038;-68
2022/01/20 03:18:37;;;;;;;6.40;4.15;;;4.10;74.50;;;;;;4995548;28;20026;-67
2022/01/20 03:21:03;;;;;;;5.22;3.67;;;4.10;74.70;;;;;;4996369;28;20027;-68
2022/01/20 03:23:28;;;;;;;4.85;3.38;;;4.10;74.60;;;;;;4995642;28;20030;-68
2022/01/20 03:25:54;;;;;;;5.47;3.65;;;4.10;74.60;;;;;;5001456;28;20092;-68
2022/01/20 03:28:20;;;;;;;3.72;3.20;;;4.10;75.50;;;;;;4999387;28;20085;-68
2022/01/20 03:30:45;;;;;;;5.22;3.88;;;4.10;74.80;;;;;;4999459;28;20046;-68
2022/01/20 03:33:11;;;;;;;6.20;3.70;;;4.10;74.80;;;;;;5001105;28;20030;-68
2022/01/20 03:35:37;;;;;;;4.38;3.50;;;4.10;74.90;;;;;;4999235;28;20054;-68
2022/01/20 03:38:03;;;;;;;5.97;3.30;;;4.10;74.90;;;;;;5000496;28;20054;-68
2022/01/20 03:40:29;;;;;;;4.53;3.47;;;4.10;75.00;;;;;;5000636;28;20108;-68
2022/01/20 03:42:54;;;;;;;5.45;3.92;;;4.10;75.00;;;;;;4998723;28;20042;-68
2022/01/20 03:45:25;;;;;;;4.78;3.83;;;4.10;75.20;;;;;;5000327;28;20545;-68
2022/01/20 03:47:54;;;;;;;5.65;3.83;;;4.10;75.10;;;;;;4999976;28;20073;-68
2022/01/20 03:53:05;;;;;;;5.55;4.30;;;4.10;75.30;;;;;;4999345;28;20085;-68
2022/01/20 03:55:30;;;;;;;6.47;4.80;;;4.10;75.50;;;;;;4998560;28;20701;-68
2022/01/20 03:57:56;;;;;;;6.30;4.35;;;4.00;75.50;;;;;;4998580;28;20043;-68
2022/01/20 04:00:21;;;;;;;9.88;7.00;;;4.00;75.50;;;;;;4999097;28;20046;-68
2022/01/20 04:02:47;;;;;;;6.35;4.57;;;4.00;75.60;;;;;;4998452;28;20065;-68
2022/01/20 04:05:13;;;;;;;6.93;5.18;;;4.00;75.70;;;;;;4999284;28;20040;-68
2022/01/20 04:07:38;;;;;;;6.75;5.20;;;4.00;75.90;;;;;;4998379;28;20575;-68
2022/01/20 04:10:04;;;;;;;7.18;4.85;;;4.00;75.90;;;;;;4998492;28;20045;-67
2022/01/20 04:12:30;;;;;;;4.32;3.72;;;4.00;75.90;;;;;;4996836;28;20118;-68
2022/01/20 04:14:56;;;;;;;4.95;4.05;;;4.00;75.90;;;;;;4997567;28;20037;-68
2022/01/20 04:17:21;;;;;;;5.43;4.18;;;4.00;75.90;;;;;;4998311;28;20049;-68
2022/01/20 04:19:47;;;;;;;5.05;4.30;;;4.00;76.10;;;;;;4998045;28;20433;-68
2022/01/20 04:22:13;;;;;;;6.13;4.72;;;4.00;76.10;;;;;;4999230;28;20129;-68
2022/01/20 04:24:39;;;;;;;7.32;5.22;;;4.00;76.40;;;;;;4994316;28;20544;-68
2022/01/20 04:27:05;;;;;;;9.52;6.65;;;4.00;76.20;;;;;;4991558;28;20092;-68
2022/01/20 04:29:32;;;;;;;6.75;4.90;;;4.00;76.40;;;;;;4996807;28;20030;-68
2022/01/20 04:31:58;;;;;;;5.97;4.28;;;3.90;76.20;;;;;;4990400;28;20046;-68
2022/01/20 04:34:24;;;;;;;6.55;4.72;;;4.00;76.40;;;;;;4992443;28;20027;-68
2022/01/20 04:36:52;;;;;;;7.20;4.50;;;4.00;76.60;;;;;;4991527;28;20046;-67
2022/01/20 04:39:23;;;;;;;5.40;4.30;;;4.00;76.90;;;;;;4995965;28;20045;-68
2022/01/20 04:41:50;;;;;;;6.28;4.72;;;4.00;77.00;;;;;;4989055;28;20038;-68
2022/01/20 04:44:33;;;;;;;7.05;4.57;;;4.00;77.10;;;;;;4990138;28;20042;-68
2022/01/20 04:47:49;;;;;;;6.40;4.85;;;4.00;76.90;;;;;;4990881;28;20578;-67
2022/01/20 04:57:58;;;;;;;5.53;4.63;;;3.90;77.10;;;;;;4993086;28;20711;-66
2022/01/20 05:00:24;;;;;;;4.82;4.38;;;3.90;77.20;;;;;;4995399;28;20046;-67
2022/01/20 05:02:50;;;;;;;5.07;4.40;;;3.90;77.10;;;;;;4993376;28;20437;-67
2022/01/20 05:05:15;;;;;;;5.68;4.63;;;3.90;77.30;;;;;;4991548;28;20174;-67
2022/01/20 05:07:41;;;;;;;6.38;5.15;;;3.90;77.80;;;;;;4988539;28;20065;-65
2022/01/20 05:10:11;;;;;;;7.25;5.47;;;3.90;77.70;;;;;;4993307;28;20047;-67
2022/01/20 05:13:03;;;;;;;5.78;4.65;;;3.80;77.80;;;;;;4991627;28;20052;-67
2022/01/20 05:15:24;;;;;;;7.80;4.47;;;3.90;77.60;;;;;;4995185;28;20053;-68
2022/01/20 05:17:50;;;;;;;6.30;5.15;;;3.80;77.60;;;;;;4992172;28;20038;-67
2022/01/20 05:20:16;;;;;;;7.78;4.85;;;3.80;77.60;;;;;;4996745;28;20046;-68
2022/01/20 05:22:42;;;;;;;5.88;4.97;;;3.80;77.60;;;;;;4995707;28;20040;-68
2022/01/20 05:25:08;;;;;;;6.38;4.75;;;3.80;77.90;;;;;;4991632;28;20537;-68
2022/01/20 05:27:34;;;;;;;7.07;4.40;;;3.80;77.80;;;;;;4990006;28;20101;-68
2022/01/20 05:30:00;;;;;;;5.68;4.43;;;3.80;78.00;;;;;;4985975;28;20042;-66
2022/01/20 05:32:25;;;;;;;6.40;4.75;;;3.80;78.00;;;;;;4985729;28;20095;-66
2022/01/20 05:34:51;;;;;;;5.97;4.40;;;3.80;78.00;;;;;;4988855;28;20125;-67
2022/01/20 05:37:17;;;;;;;4.97;4.32;;;3.80;78.00;;;;;;4987834;28;20540;-67
2022/01/20 05:39:43;;;;;;;4.75;4.07;;;3.80;78.10;;;;;;4991581;28;20512;-68
2022/01/20 05:42:09;;;;;;;6.80;4.60;;;3.80;78.00;;;;;;4995898;28;20034;-68
2022/01/20 05:44:35;;;;;;;4.80;4.30;;;3.80;78.00;;;;;;4990268;28;20042;-68
2022/01/20 05:47:06;;;;;;;5.35;4.13;;;3.80;78.10;;;;;;4995979;28;20042;-68
2022/01/20 05:49:33;;;;;;;5.97;4.53;;;3.80;78.10;;;;;;4994960;28;20034;-68
2022/01/20 05:51:58;;;;;;;6.10;4.00;;;3.80;78.10;;;;;;4994525;28;20360;-69
2022/01/20 05:54:24;;;;;;;9.43;5.90;;;3.80;78.10;;;;;;4995930;28;20045;-68
2022/01/20 05:56:51;;;;;;;13.95;7.88;;;3.80;78.40;;;;;;4993802;28;20061;-67
2022/01/20 05:59:17;;;;;;;5.13;3.90;;;3.80;78.30;;;;;;4995449;28;20053;-68
2022/01/20 06:01:46;;;;;;;4.40;3.63;;;3.80;78.40;;;;;;4994071;28;20077;-69
2022/01/20 06:04:11;;;;;;;3.42;3.13;;;3.80;78.30;;;;;;4996139;28;20587;-67
2022/01/20 06:06:37;;;;;;;4.35;3.88;;;3.80;78.20;;;;;;4993830;28;20100;-68
2022/01/20 06:09:04;;;;;;;3.50;3.20;;;3.80;78.20;;;;;;4995147;28;20813;-69
2022/01/20 06:11:34;;;;;;;3.47;3.17;;;3.80;78.10;;;;;;4993251;28;20038;-68
2022/01/20 06:14:00;;;;;;;3.53;3.17;;;3.80;78.30;;;;;;4995897;28;20088;-68
2022/01/20 06:16:26;;;;;;;3.53;3.13;;;3.80;78.30;;;;;;4995607;28;20034;-69
2022/01/20 06:18:52;;;;;;;19.02;11.07;;;3.80;78.30;;;;;;4993766;28;20101;-67
2022/01/20 06:21:17;;;;;;;5.40;4.30;;;3.80;78.30;;;;;;4998316;28;20543;-68
2022/01/20 06:23:43;;;;;;;4.32;3.80;;;3.80;78.40;;;;;;4999501;28;20042;-68
2022/01/20 06:26:09;;;;;;;4.10;3.53;;;3.80;78.50;;;;;;4995749;28;20497;-68
2022/01/20 06:28:37;;;;;;;3.40;3.10;;;3.80;78.50;;;;;;4994012;28;20505;-67
2022/01/20 06:31:03;;;;;;;4.47;3.35;;;3.90;78.50;;;;;;4987365;28;20045;-67
2022/01/20 06:33:29;;;;;;;5.32;3.80;;;3.80;78.40;;;;;;4999391;28;20037;-69
2022/01/20 06:35:55;;;;;;;4.18;3.60;;;3.90;78.50;;;;;;4998191;28;20441;-68
2022/01/20 06:38:22;;;;;;;4.53;3.67;;;3.90;78.30;;;;;;4998377;28;20057;-68
2022/01/20 06:40:47;;;;;;;5.10;4.47;;;3.90;78.30;;;;;;4996755;28;20447;-67
2022/01/20 06:43:13;;;;;;;4.45;3.88;;;3.90;78.30;;;;;;5001249;28;20037;-68
2022/01/20 06:45:39;;;;;;;6.47;5.30;;;3.90;78.40;;;;;;5001644;28;20035;-68
2022/01/20 06:48:04;;;;;;;9.02;5.93;;;3.90;78.40;;;;;;5002669;28;20413;-69
2022/01/20 06:50:30;;;;;;;5.15;4.28;;;3.90;78.30;;;;;;5000075;28;20033;-66
2022/01/20 06:52:56;;;;;;;4.57;3.80;;;3.90;78.30;;;;;;5000942;28;20049;-68
2022/01/20 06:55:22;;;;;;;3.55;3.25;;;3.90;78.30;;;;;;5001781;28;20505;-67
2022/01/20 06:57:48;;;;;;;5.38;4.75;;;3.90;78.30;;;;;;5002472;28;20026;-68
2022/01/20 07:00:16;;;;;;;4.38;3.85;;;3.80;78.20;;;;;;4999672;28;20077;-68
2022/01/20 07:02:43;;;;;;;5.10;4.60;;;3.90;79.20;;;;;;4999053;28;20034;-68
2022/01/20 07:05:11;;;;;;;7.63;4.60;;;3.90;78.30;;;;;;5000603;28;20030;-68
2022/01/20 07:07:37;;;;;;;4.32;3.92;;;3.90;78.40;;;;;;4999099;28;20076;-67
2022/01/20 07:10:04;;;;;;;5.68;4.63;;;3.90;78.50;;;;;;5000563;28;20042;-66
2022/01/20 07:12:29;;;;;;;5.85;4.20;;;3.90;78.60;;;;;;5001840;28;20049;-67
2022/01/20 07:14:55;;;;;;;4.70;4.20;;;3.90;78.50;;;;;;4998287;28;20034;-67
2022/01/20 07:17:21;;;;;;;4.47;4.05;;;3.90;78.50;;;;;;4999379;28;20447;-68
2022/01/20 07:19:46;;;;;;;4.03;3.58;;;3.90;78.50;;;;;;4999492;28;20416;-68
2022/01/20 07:22:12;;;;;;;5.90;4.30;;;3.90;78.40;;;;;;5001486;28;20057;-67
2022/01/20 07:24:38;;;;;;;4.03;3.63;;;3.90;78.40;;;;;;4998632;28;20624;-67
2022/01/20 07:27:04;;;;;;;5.63;4.05;;;3.90;78.60;;;;;;5000119;28;20034;-67
2022/01/20 07:29:31;;;;;;;6.30;4.55;;;3.90;78.70;;;;;;4999951;28;20042;-67
2022/01/20 07:31:59;;;;;;;7.03;4.90;;;3.90;78.60;;;;;;5001789;28;20113;-67
2022/01/20 07:34:25;;;;;;;8.32;6.65;;;3.90;78.80;;;;;;5001518;28;20176;-68
2022/01/20 07:36:50;;;;;;;5.95;4.60;;;3.90;78.80;;;;;;5000781;28;20114;-67
2022/01/20 07:39:16;;;;;;;6.53;5.45;;;3.90;78.90;;;;;;5015349;28;20046;-67
2022/01/20 07:41:42;;;;;;;10.63;7.35;;;3.90;79.00;;;;;;5000747;28;20125;-67
2022/01/20 07:44:09;;;;;;;7.38;5.65;;;3.90;78.80;;;;;;4983258;28;20038;-67
2022/01/20 07:46:35;;;;;;;11.60;7.72;;;3.90;78.80;;;;;;5013747;28;20037;-68
2022/01/20 07:49:01;;;;;;;6.97;5.78;;;3.90;78.80;;;;;;5001020;28;20034;-67
2022/01/20 07:51:26;;;;;;;10.77;8.10;;;3.90;78.80;;;;;;5000283;28;20535;-67
2022/01/20 07:53:52;;;;;;;16.45;11.00;;;3.90;78.80;;;;;;5001509;28;20034;-67
2022/01/20 07:56:18;;;;;;;8.43;6.55;;;3.90;79.70;;;;;;5002735;28;20057;-67
2022/01/20 07:58:43;;;;;;;7.28;5.70;;;4.00;78.90;;;;;;5001615;28;20113;-68
2022/01/20 08:01:09;;;;;;;8.18;6.18;;;3.90;78.80;;;;;;4998051;28;20038;-67
2022/01/20 08:03:35;;;;;;;11.38;7.53;;;4.00;78.90;;;;;;4996023;28;20038;-66
2022/01/20 08:06:00;;;;;;;8.23;6.25;;;4.00;78.80;;;;;;4996973;28;20476;-67
2022/01/20 08:08:26;;;;;;;8.60;6.90;;;4.00;78.80;;;;;;4998852;28;20708;-68
2022/01/20 08:10:52;;;;;;;15.88;9.65;;;4.00;78.90;;;;;;5002439;28;20136;-67
2022/01/20 08:13:17;;;;;;;19.08;12.00;;;4.00;78.80;;;;;;5017867;28;20066;-68
2022/01/20 08:15:44;;;;;;;11.57;6.85;;;4.00;78.80;;;;;;5000745;28;20030;-67
2022/01/20 08:18:10;;;;;;;17.08;10.07;;;4.00;78.80;;;;;;5003057;28;20026;-68
2022/01/20 08:20:35;;;;;;;13.52;7.95;;;4.10;78.80;;;;;;4999658;28;20046;-68
2022/01/20 08:23:02;;;;;;;9.80;7.30;;;4.10;78.80;;;;;;5000361;28;20034;-69
2022/01/20 08:25:28;;;;;;;9.80;6.95;;;4.10;78.80;;;;;;5001135;28;20034;-68
2022/01/20 08:27:54;;;;;;;6.63;5.45;;;4.10;78.80;;;;;;5000101;28;20088;-68
2022/01/20 08:30:21;;;;;;;9.00;5.97;;;4.10;78.70;;;;;;4999012;28;21006;-68
2022/01/20 08:32:48;;;;;;;7.40;6.22;;;4.10;78.80;;;;;;4999135;28;20062;-68
2022/01/20 08:35:14;;;;;;;7.05;5.97;;;4.10;78.80;;;;;;4999606;28;20453;-68
2022/01/20 08:37:43;;;;;;;11.30;9.18;;;4.10;78.80;;;;;;5000098;28;20035;-68
2022/01/20 08:40:13;;;;;;;8.63;6.88;;;4.10;78.90;;;;;;4998491;28;20042;-68
2022/01/20 08:42:42;;;;;;;8.60;6.50;;;4.20;79.00;;;;;;4997865;28;20034;-68
2022/01/20 08:45:10;;;;;;;6.88;5.45;;;4.20;79.10;;;;;;5001129;28;20034;-68
2022/01/20 08:47:35;;;;;;;6.93;5.72;;;4.20;79.30;;;;;;4998460;28;20050;-68
2022/01/20 08:50:02;;;;;;;6.85;5.40;;;4.20;79.20;;;;;;5000513;28;20041;-68
2022/01/20 08:52:28;;;;;;;6.18;5.35;;;4.20;79.20;;;;;;4997391;28;20035;-68
2022/01/20 08:54:57;;;;;;;5.82;5.03;;;4.20;79.20;;;;;;5000654;28;20501;-68
2022/01/20 08:57:24;;;;;;;5.63;4.97;;;4.30;79.20;;;;;;5000454;28;20421;-68
2022/01/20 08:59:50;;;;;;;5.47;4.90;;;4.30;79.20;;;;;;5000062;28;20045;-68
2022/01/20 09:02:17;;;;;;;5.53;4.68;;;4.30;79.10;;;;;;4995743;28;20560;-68
2022/01/20 09:04:45;;;;;;;5.00;4.50;;;4.40;79.20;;;;;;4999283;28;20372;-68
2022/01/20 09:07:10;;;;;;;5.28;4.57;;;4.40;79.00;;;;;;5000747;28;20568;-68
2022/01/20 09:09:42;;;;;;;4.88;4.38;;;4.40;79.00;;;;;;4999523;28;20116;-67
2022/01/20 09:17:24;;;;;;;6.65;4.97;;;4.50;78.80;;;;;;4998925;28;20139;-68
2022/01/20 09:19:50;;;;;;;5.40;4.63;;;4.50;78.60;;;;;;4998926;28;20513;-68
2022/01/20 09:22:16;;;;;;;5.63;4.30;;;4.50;78.50;;;;;;4999356;28;20038;-68
2022/01/20 09:24:44;;;;;;;6.47;5.28;;;4.50;78.50;;;;;;4997901;28;20034;-68
2022/01/20 09:27:10;;;;;;;5.30;3.83;;;4.50;78.50;;;;;;5000412;28;20042;-67
2022/01/20 09:29:36;;;;;;;4.80;4.05;;;4.60;78.50;;;;;;4997370;28;20084;-68
2022/01/20 09:32:05;;;;;;;4.95;4.10;;;4.60;78.50;;;;;;4998220;28;20512;-68
2022/01/20 09:34:31;;;;;;;5.60;4.10;;;4.60;78.40;;;;;;4997675;28;20030;-68
2022/01/20 09:36:59;;;;;;;4.50;4.10;;;4.60;78.40;;;;;;4999145;28;20036;-68
2022/01/20 09:39:25;;;;;;;4.55;4.00;;;4.60;78.40;;;;;;5000526;28;20078;-68
2022/01/20 09:41:51;;;;;;;4.18;3.60;;;4.60;78.40;;;;;;4999536;28;20495;-68
2022/01/20 09:44:17;;;;;;;4.38;3.80;;;4.70;78.50;;;;;;4999930;28;20477;-68
2022/01/20 09:46:44;;;;;;;3.67;3.25;;;4.70;78.50;;;;;;4997529;28;20034;-67
2022/01/20 09:49:11;;;;;;;5.47;3.25;;;4.70;79.50;;;;;;4996355;28;20092;-68
2022/01/20 09:51:38;;;;;;;3.30;3.00;;;4.70;78.60;;;;;;4991500;28;20580;-68
2022/01/20 09:54:05;;;;;;;3.40;2.75;;;4.80;78.50;;;;;;4998234;28;20042;-68
2022/01/20 09:56:31;;;;;;;4.22;3.10;;;4.80;78.10;;;;;;4997180;28;20405;-68
2022/01/20 09:58:57;;;;;;;4.40;2.83;;;4.80;77.70;;;;;;4997446;28;20044;-68
2022/01/20 10:01:40;;;;;;;4.97;3.05;;;4.90;77.80;;;;;;4999728;28;20034;-68
2022/01/20 10:04:16;;;;;;;5.13;3.30;;;4.90;78.00;;;;;;4999623;28;20042;-68
2022/01/20 10:06:52;;;;;;;3.92;3.22;;;5.00;78.00;;;;;;4999037;28;20030;-68
2022/01/20 10:09:27;;;;;;;5.60;3.90;;;5.00;78.10;;;;;;4999149;28;20496;-68
2022/01/20 10:11:52;;;;;;;;;;;5.10;78.30;;;;;;4997340;28;20554;-68
2022/01/20 10:14:18;;;;;;;4.55;3.50;;;5.10;78.50;;;;;;5001720;28;19913;-68
2022/01/20 10:16:44;;;;;;;5.38;4.03;;;5.30;78.10;;;;;;5003291;28;20030;-68
2022/01/20 10:19:09;;;;;;;4.20;3.72;;;5.30;77.80;;;;;;5003431;28;20465;-68
2022/01/20 10:21:37;;;;;;;3.70;3.28;;;5.30;77.60;;;;;;5004527;28;20044;-68
2022/01/20 10:24:11;;;;;;;4.47;3.70;;;5.40;77.50;;;;;;5003637;28;20041;-69
2022/01/20 10:26:38;;;;;;;6.38;4.38;;;5.50;77.30;;;;;;5001816;28;20452;-68
2022/01/20 10:29:08;;;;;;;4.22;3.22;;;5.60;77.30;;;;;;5001157;28;20505;-68
2022/01/20 10:31:43;;;;;;;4.78;4.13;;;5.60;77.00;;;;;;5002647;28;20046;-69
2022/01/20 10:34:18;;;;;;;;;;;5.70;76.80;;;;;;5002316;28;20038;-68
2022/01/20 10:36:54;;;;;;;3.67;3.35;;;5.80;76.70;;;;;;5002805;28;20511;-67
2022/01/20 10:39:33;;;;;;;5.18;4.10;;;5.90;76.60;;;;;;5016895;28;20042;-67
2022/01/20 10:42:04;;;;;;;3.20;2.63;;;5.80;76.20;;;;;;5002353;28;20038;-68
2022/01/20 10:44:52;;;;;;;2.38;2.17;;;5.90;76.00;;;;;;5000161;28;20046;-67
2022/01/20 10:47:23;;;;;;;3.65;1.77;;;6.00;74.70;;;;;;5002329;28;20048;-69
2022/01/20 10:49:49;;;;;;;6.35;3.80;;;6.00;74.80;;;;;;5001763;28;20026;-68
2022/01/20 10:52:18;;;;;;;6.00;3.30;;;6.10;74.80;;;;;;5003005;28;20038;-68
2022/01/20 10:54:47;;;;;;;2.60;1.13;;;6.10;74.10;;;;;;5001819;28;20181;-68
2022/01/20 10:57:17;;;;;;;2.45;1.10;;;6.10;72.90;;;;;;5002015;28;20402;-67
2022/01/20 10:59:58;;;;;;;2.95;1.50;;;6.10;72.40;;;;;;5000427;28;20038;-68
2022/01/20 11:02:27;;;;;;;2.05;1.08;;;6.20;72.10;;;;;;4998916;28;20109;-68
2022/01/20 11:04:53;;;;;;;2.05;1.10;;;6.30;72.20;;;;;;5000143;28;20375;-67
2022/01/20 11:07:19;;;;;;;2.67;1.30;;;6.30;71.90;;;;;;5000146;28;20456;-68
2022/01/20 11:09:50;;;;;;;3.42;1.10;;;6.30;71.90;;;;;;5000985;28;20038;-68
2022/01/20 11:12:17;;;;;;;3.85;1.20;;;6.30;70.80;;;;;;5000348;28;20046;-68
2022/01/20 11:14:45;;;;;;;3.20;0.93;;;6.40;70.50;;;;;;4999135;28;20382;-68
2022/01/20 11:17:21;;;;;;;3.03;1.05;;;6.40;69.60;;;;;;4998919;28;20034;-68
2022/01/20 11:19:48;;;;;;;3.92;1.15;;;6.30;68.40;;;;;;5000747;28;20386;-68
2022/01/20 11:22:15;;;;;;;2.58;1.15;;;6.30;69.00;;;;;;4996619;28;20067;-67
2022/01/20 11:24:43;;;;;;;3.33;1.10;;;6.40;69.50;;;;;;4999157;28;21545;-68
2022/01/20 11:27:12;;;;;;;2.63;1.10;;;6.40;70.70;;;;;;4996982;28;20505;-68
2022/01/20 11:29:47;;;;;;;6.05;1.10;;;6.40;69.10;;;;;;4994286;28;20346;-65
2022/01/20 11:32:22;;;;;;;;;;;6.40;68.00;;;;;;4998384;28;20122;-70
2022/01/20 11:35:18;;;;;;;4.00;1.10;;;6.40;67.80;;;;;;4990458;28;20047;-67
2022/01/20 11:37:56;;;;;;;5.28;1.40;;;6.50;67.00;;;;;;4992619;28;20041;-67
2022/01/20 11:40:24;;;;;;;6.63;1.30;;;6.40;65.60;;;;;;4999075;28;20030;-68
2022/01/20 11:43:06;;;;;;;4.13;1.27;;;6.40;66.20;;;;;;5000547;28;20035;-67
2022/01/20 11:45:36;;;;;;;4.13;1.40;;;6.30;66.10;;;;;;4999005;28;20398;-68
2022/01/20 11:48:12;;;;;;;4.82;1.30;;;6.30;66.10;;;;;;5000415;28;20034;-68
2022/01/20 11:50:38;;;;;;;3.35;1.13;;;6.30;66.10;;;;;;4998951;28;20034;-68
2022/01/20 11:53:15;;;;;;;2.75;1.15;;;6.30;66.50;;;;;;5000588;28;20041;-68
2022/01/20 11:55:44;;;;;;;3.97;1.25;;;6.20;66.30;;;;;;5000245;28;20057;-67
2022/01/20 11:58:12;;;;;;;5.53;1.40;;;6.10;66.30;;;;;;5000416;28;20022;-68
2022/01/20 12:00:37;;;;;;;7.53;1.50;;;6.10;66.60;;;;;;5000094;28;20596;-68
2022/01/20 12:03:12;;;;;;;6.25;1.33;;;6.10;66.80;;;;;;4998027;28;20121;-67
2022/01/20 12:05:37;;;;;;;;;;;6.10;66.50;;;;;;4999903;28;20043;-68
2022/01/20 12:08:10;;;;;;;4.38;1.48;;;6.10;65.30;;;;;;4999052;28;20320;-67
2022/01/20 12:10:38;;;;;;;5.10;1.63;;;6.20;66.80;;;;;;4999191;28;20596;-67
2022/01/20 12:13:11;;;;;;;8.50;1.67;;;6.10;67.10;;;;;;4999906;28;20050;-68
2022/01/20 12:15:48;;;;;;;5.55;1.75;;;6.10;66.90;;;;;;4999734;28;20034;-68
2022/01/20 12:18:14;;;;;;;9.18;2.00;;;6.10;66.30;;;;;;4999012;28;20057;-67
2022/01/20 12:20:39;;;;;;;8.73;1.60;;;6.10;66.50;;;;;;4997513;28;20141;-67
2022/01/20 12:23:05;;;;;;;22.77;2.63;;;6.10;66.60;;;;;;5000260;28;20471;-68
2022/01/20 12:25:33;;;;;;;11.18;1.75;;;6.20;66.80;;;;;;4999198;28;20026;-67
2022/01/20 12:28:07;;;;;;;7.32;1.60;;;6.10;66.90;;;;;;4998193;28;20044;-68
2022/01/20 12:30:35;;;;;;;4.95;1.63;;;6.20;66.50;;;;;;4998646;28;20181;-67
2022/01/20 12:33:11;;;;;;;8.90;1.45;;;6.20;66.50;;;;;;4998013;28;20034;-67
2022/01/20 12:35:41;;;;;;;4.47;1.30;;;6.20;65.90;;;;;;5000651;28;20497;-68
2022/01/20 12:38:14;;;;;;;6.00;1.70;;;6.30;66.00;;;;;;4998056;28;20054;-67
2022/01/20 12:40:39;;;;;;;5.28;1.70;;;6.30;66.00;;;;;;5001167;28;20030;-68
2022/01/20 12:43:05;;;;;;;7.07;1.63;;;6.20;66.20;;;;;;4998385;28;20033;-68
2022/01/20 12:48:17;;;;;;;8.93;1.98;;;6.30;66.20;;;;;;4997142;28;20058;-68
2022/01/20 12:51:04;;;;;;;9.13;2.47;;;6.30;66.00;;;;;;4996471;28;20064;-68
2022/01/20 12:53:36;;;;;;;5.80;2.60;;;6.30;65.80;;;;;;4999228;28;20045;-68
2022/01/20 12:56:09;;;;;;;7.35;1.88;;;6.30;66.10;;;;;;4998369;28;20157;-68
2022/01/20 12:58:53;;;;;;;9.77;1.80;;;6.30;66.40;;;;;;4997807;28;20033;-67
2022/01/20 13:01:20;;;;;;;11.15;2.47;;;6.30;65.80;;;;;;5006659;28;20042;-69
2022/01/20 13:03:46;;;;;;;5.45;1.90;;;6.30;66.00;;;;;;4998441;28;20026;-68
2022/01/20 13:06:23;;;;;;;4.28;1.63;;;6.30;66.30;;;;;;4997573;28;20544;-68
2022/01/20 13:09:09;;;;;;;4.13;1.52;;;6.30;66.20;;;;;;4999967;28;20045;-68
2022/01/20 13:11:52;;;;;;;5.75;1.75;;;6.30;65.60;;;;;;4999697;28;20053;-68
2022/01/20 13:14:19;;;;;;;5.40;1.77;;;6.30;66.00;;;;;;5003162;28;20041;-68
2022/01/20 13:16:53;;;;;;;7.00;1.80;;;6.20;67.20;;;;;;4997897;28;20061;-68
2022/01/20 13:19:21;;;;;;;5.47;2.30;;;6.20;67.90;;;;;;4999249;28;20034;-68
2022/01/20 13:21:53;;;;;;;5.00;2.15;;;6.00;68.30;;;;;;5000329;28;20192;-68
2022/01/20 13:24:28;;;;;;;6.15;1.83;;;6.00;68.80;;;;;;5000002;28;20041;-69
2022/01/20 13:26:55;;;;;;;4.70;1.08;;;5.90;69.30;;;;;;4999231;28;20039;-68
2022/01/20 13:29:23;;;;;;;4.53;1.40;;;5.80;69.40;;;;;;4998876;28;20052;-68
2022/01/20 13:31:56;;;;;;;4.93;1.60;;;5.80;69.80;;;;;;4998753;28;20041;-68
2022/01/20 13:34:22;;;;;;;3.20;1.30;;;5.80;70.30;;;;;;4997099;28;20049;-68
2022/01/20 13:36:51;;;;;;;3.75;1.10;;;5.70;70.40;;;;;;4995556;28;20041;-68
2022/01/20 13:39:32;;;;;;;3.95;1.38;;;5.70;70.30;;;;;;4998055;28;20062;-68
2022/01/20 13:42:12;;;;;;;4.38;1.40;;;5.60;70.50;;;;;;4996963;28;20833;-68
2022/01/20 13:47:22;;;;;;;2.80;1.20;;;5.60;70.80;;;;;;4999191;28;20054;-68
2022/01/20 13:49:54;;;;;;;4.45;1.83;;;5.60;70.70;;;;;;4997909;28;20034;-68
2022/01/20 13:52:21;;;;;;;4.35;2.10;;;5.60;70.80;;;;;;4999999;28;20513;-68
2022/01/20 13:54:48;;;;;;;3.22;1.33;;;5.50;71.00;;;;;;4999100;28;20046;-68
2022/01/20 13:57:14;;;;;;;4.30;1.30;;;5.60;71.10;;;;;;4999888;28;20041;-68
2022/01/20 13:59:57;;;;;;;2.28;1.25;;;5.60;70.50;;;;;;5000053;28;20042;-69
2022/01/20 14:02:25;;;;;;;3.45;1.55;;;5.60;70.00;;;;;;5000701;28;20509;-68
2022/01/20 14:04:52;;;;;;;2.33;1.35;;;5.60;70.60;;;;;;4999424;28;20113;-68
2022/01/20 14:07:18;;;;;;;5.85;1.25;;;5.60;71.00;;;;;;4999775;28;20064;-68
2022/01/20 14:09:44;;;;;;;2.65;1.35;;;5.70;70.80;;;;;;4999421;28;20432;-68
2022/01/20 14:12:10;;;;;;;3.28;1.20;;;5.70;70.70;;;;;;4997691;28;20034;-68